Time;durP1;ratioP1;P1;durP2;ratioP2;P2;SDS_P1;SDS_P2;PMS_P1;PMS_P2;Temp;Humidity;BMP_temperature;BMP_pressure;BME280_temperature;BME280_humidity;BME280_pressure;Samples;Min_cycle;Max_cycle;Signal;HPM_P1;HPM_P2
2023/01/30 00:01:30;;;;;;;1.70;1.65;;;;;;;;;;5067960;28;20029;-81
2023/01/30 00:03:55;;;;;;;2.72;2.58;;;;;;;;;;5033933;28;20024;-80
2023/01/30 00:06:21;;;;;;;0.10;0.10;;;;;;;;;;5050920;28;20486;-81
2023/01/30 00:08:46;;;;;;;0.10;0.10;;;;;;;;;;5050947;28;20068;-84
2023/01/30 00:11:13;;;;;;;1.17;1.17;;;;;;;;;;5050911;28;20079;-81
2023/01/30 00:13:39;;;;;;;0.10;0.10;;;;;;;;;;5050886;28;20032;-80
2023/01/30 00:16:05;;;;;;;0.10;0.10;;;;;;;;;;5034280;28;20112;-79
2023/01/30 00:18:30;;;;;;;0.10;0.10;;;;;;;;;;5054592;28;20108;-80
2023/01/30 00:21:00;;;;;;;0.80;0.52;;;;;;;;;;5054010;28;20452;-79
2023/01/30 00:23:25;;;;;;;;;;;;;;;;;;5054729;28;20029;-76
2023/01/30 00:25:51;;;;;;;0.30;0.30;;;;;;;;;;5036900;28;19912;-80
2023/01/30 00:28:16;;;;;;;0.10;0.10;;;;;;;;;;5054556;28;20037;-78
2023/01/30 00:30:42;;;;;;;0.10;0.10;;;;;;;;;;5064286;28;20530;-79
2023/01/30 00:33:07;;;;;;;0.68;0.68;;;;;;;;;;5074240;28;20024;-77
2023/01/30 00:35:33;;;;;;;0.98;0.90;;;;;;;;;;5056272;28;20391;-74
2023/01/30 00:37:58;;;;;;;0.30;0.30;;;;;;;;;;5073965;28;20115;-76
2023/01/30 00:40:24;;;;;;;0.50;0.50;;;;;;;;;;5073596;28;20127;-75
2023/01/30 00:48:32;;;;;;;0.35;0.35;;;;;;;;;;5029461;28;20060;-74
2023/01/30 00:50:58;;;;;;;1.17;1.15;;;;;;;;;;5073331;28;20025;-77
2023/01/30 00:53:23;;;;;;;0.90;0.90;;;;;;;;;;5056072;28;20433;-74
2023/01/30 00:55:52;;;;;;;0.52;0.50;;;;;;;;;;5073935;28;20023;-74
2023/01/30 00:58:18;;;;;;;0.00;0.00;;;;;;;;;;5073764;28;20032;-76
2023/01/30 01:00:44;;;;;;;1.42;1.35;;;;;;;;;;5055667;28;20077;-75
2023/01/30 01:03:09;;;;;;;0.10;0.10;;;;;;;;;;5055667;28;20035;-77
2023/01/30 01:05:35;;;;;;;0.65;0.65;;;;;;;;;;5073851;28;20024;-73
2023/01/30 01:08:01;;;;;;;3.63;3.35;;;;;;;;;;5069723;28;20033;-75
2023/01/30 01:10:26;;;;;;;0.00;0.00;;;;;;;;;;5063873;28;20376;-73
2023/01/30 01:12:52;;;;;;;0.13;0.13;;;;;;;;;;5073068;28;20032;-78
2023/01/30 01:15:18;;;;;;;0.63;0.63;;;;;;;;;;5055514;28;20364;-76
2023/01/30 01:17:43;;;;;;;3.53;3.28;;;;;;;;;;5055287;28;20421;-76
2023/01/30 01:20:09;;;;;;;0.10;0.10;;;;;;;;;;5055685;28;20052;-79
2023/01/30 01:22:34;;;;;;;0.28;0.28;;;;;;;;;;5055539;28;20017;-79
2023/01/30 01:25:00;;;;;;;0.35;0.35;;;;;;;;;;5073592;28;20044;-79
2023/01/30 01:27:25;;;;;;;0.95;0.95;;;;;;;;;;5038676;28;20090;-75
2023/01/30 01:29:50;;;;;;;0.20;0.20;;;;;;;;;;5055203;28;20039;-75
2023/01/30 01:32:16;;;;;;;0.20;0.20;;;;;;;;;;5054463;28;20033;-73
2023/01/30 01:34:41;;;;;;;0.10;0.10;;;;;;;;;;5073496;28;20036;-76
2023/01/30 01:37:07;;;;;;;0.00;0.00;;;;;;;;;;5072623;28;20041;-73
2023/01/30 01:42:18;;;;;;;0.20;0.20;;;;;;;;;;5073303;28;20104;-74
2023/01/30 01:45:01;;;;;;;2.40;2.20;;;;;;;;;;5073230;28;20059;-76
2023/01/30 01:47:27;;;;;;;0.32;0.32;;;;;;;;;;5073172;28;20128;-74
2023/01/30 01:49:53;;;;;;;0.00;0.00;;;;;;;;;;5073353;28;20437;-74
2023/01/30 01:52:19;;;;;;;0.00;0.00;;;;;;;;;;5073009;28;20023;-76
2023/01/30 01:54:56;;;;;;;0.63;0.63;;;;;;;;;;5073100;28;20028;-74
2023/01/30 01:57:25;;;;;;;1.45;1.13;;;;;;;;;;5072151;28;20041;-75
2023/01/30 01:59:55;;;;;;;0.10;0.10;;;;;;;;;;5055336;28;20476;-79
2023/01/30 02:02:21;;;;;;;0.10;0.10;;;;;;;;;;5055311;28;20056;-80
2023/01/30 02:05:05;;;;;;;0.22;0.22;;;;;;;;;;5073277;28;20028;-81
2023/01/30 02:07:37;;;;;;;0.32;0.32;;;;;;;;;;5073028;28;20064;-79
2023/01/30 02:10:03;;;;;;;0.40;0.40;;;;;;;;;;5054963;28;20027;-78
2023/01/30 02:12:28;;;;;;;3.53;2.63;;;;;;;;;;5073025;28;20020;-78
2023/01/30 02:14:55;;;;;;;0.85;0.85;;;;;;;;;;5055116;28;20190;-80
2023/01/30 02:17:21;;;;;;;2.33;0.95;;;;;;;;;;5072787;28;20033;-78
2023/01/30 02:19:56;;;;;;;0.17;0.17;;;;;;;;;;5054621;28;20021;-80
2023/01/30 02:22:31;;;;;;;0.20;0.20;;;;;;;;;;5072665;28;20111;-78
2023/01/30 02:25:15;;;;;;;2.53;2.33;;;;;;;;;;5072955;28;20044;-78
2023/01/30 02:28:01;;;;;;;0.43;0.43;;;;;;;;;;5038168;28;20033;-79
2023/01/30 02:30:45;;;;;;;0.95;0.93;;;;;;;;;;5041042;28;20047;-79
2023/01/30 02:33:34;;;;;;;0.20;0.20;;;;;;;;;;5072686;28;20564;-78
2023/01/30 02:36:00;;;;;;;0.80;0.80;;;;;;;;;;5060047;28;20040;-77
2023/01/30 02:38:38;;;;;;;0.08;0.08;;;;;;;;;;5072850;28;20031;-79
2023/01/30 02:41:03;;;;;;;0.57;0.55;;;;;;;;;;5054078;28;20024;-77
2023/01/30 02:43:28;;;;;;;1.40;0.88;;;;;;;;;;5055595;28;20035;-81
2023/01/30 02:46:16;;;;;;;2.25;2.15;;;;;;;;;;5058224;28;20372;-78
2023/01/30 02:48:45;;;;;;;1.05;1.05;;;;;;;;;;5058344;28;20135;-79
2023/01/30 02:51:18;;;;;;;0.20;0.20;;;;;;;;;;5058285;28;20036;-80
2023/01/30 02:53:45;;;;;;;1.95;1.83;;;;;;;;;;5058062;28;20407;-78
2023/01/30 02:56:11;;;;;;;0.20;0.20;;;;;;;;;;5058110;28;20040;-81
2023/01/30 02:58:42;;;;;;;2.25;2.05;;;;;;;;;;5058299;28;20027;-80
2023/01/30 03:01:31;;;;;;;1.63;1.52;;;;;;;;;;5058185;28;20039;-79
2023/01/30 03:04:17;;;;;;;0.20;0.20;;;;;;;;;;5062906;28;20365;-81
2023/01/30 03:07:02;;;;;;;4.25;1.40;;;;;;;;;;5058263;28;20032;-81
2023/01/30 03:09:34;;;;;;;0.10;0.10;;;;;;;;;;5057812;28;20070;-81
2023/01/30 03:12:13;;;;;;;0.13;0.13;;;;;;;;;;5057923;28;20029;-83
2023/01/30 03:14:47;;;;;;;2.67;2.20;;;;;;;;;;5057644;28;20036;-81
2023/01/30 03:17:14;;;;;;;2.42;2.20;;;;;;;;;;5041688;28;20395;-82
2023/01/30 03:19:40;;;;;;;0.20;0.20;;;;;;;;;;5057960;28;20115;-80
2023/01/30 03:22:06;;;;;;;0.55;0.55;;;;;;;;;;5057651;28;20037;-81
2023/01/30 03:24:32;;;;;;;0.77;0.43;;;;;;;;;;5074101;28;20052;-82
2023/01/30 03:27:01;;;;;;;2.72;1.55;;;;;;;;;;5058483;28;20029;-81
2023/01/30 03:29:26;;;;;;;0.07;0.07;;;;;;;;;;5058209;28;20036;-81
2023/01/30 03:31:52;;;;;;;3.20;2.75;;;;;;;;;;5057668;28;20025;-81
2023/01/30 03:34:17;;;;;;;0.10;0.10;;;;;;;;;;5075563;28;20460;-81
2023/01/30 03:36:43;;;;;;;2.88;2.65;;;;;;;;;;5057567;28;20049;-79
2023/01/30 03:39:08;;;;;;;0.30;0.30;;;;;;;;;;5075403;28;20061;-80
2023/01/30 03:41:34;;;;;;;8.30;0.85;;;;;;;;;;5057398;28;20029;-79
2023/01/30 03:44:00;;;;;;;1.05;1.05;;;;;;;;;;5057114;28;20032;-79
2023/01/30 03:46:25;;;;;;;0.00;0.00;;;;;;;;;;5074725;28;20020;-80
2023/01/30 03:48:51;;;;;;;0.10;0.10;;;;;;;;;;5057272;28;20048;-82
2023/01/30 03:51:16;;;;;;;0.00;0.00;;;;;;;;;;5057270;28;20021;-81
2023/01/30 03:53:42;;;;;;;3.90;3.50;;;;;;;;;;5057141;28;20086;-80
2023/01/30 03:56:08;;;;;;;1.77;1.65;;;;;;;;;;5055722;28;20158;-79
2023/01/30 03:58:35;;;;;;;0.82;0.82;;;;;;;;;;5056884;28;20602;-79
2023/01/30 04:01:12;;;;;;;0.05;0.05;;;;;;;;;;5056947;28;20028;-76
2023/01/30 04:03:39;;;;;;;0.10;0.10;;;;;;;;;;5069611;28;20495;-77
2023/01/30 04:06:05;;;;;;;0.00;0.00;;;;;;;;;;5069882;28;20025;-79
2023/01/30 04:08:30;;;;;;;0.45;0.45;;;;;;;;;;5071026;28;20041;-78
2023/01/30 04:10:56;;;;;;;1.80;1.65;;;;;;;;;;5052680;28;20021;-77
2023/01/30 04:13:22;;;;;;;0.10;0.10;;;;;;;;;;5052932;28;20051;-78
2023/01/30 04:15:47;;;;;;;0.03;0.03;;;;;;;;;;5052940;28;20139;-78
2023/01/30 04:18:19;;;;;;;0.73;0.40;;;;;;;;;;5070261;28;20041;-78
2023/01/30 04:21:04;;;;;;;0.10;0.10;;;;;;;;;;5039701;28;20037;-78
2023/01/30 04:23:34;;;;;;;1.08;0.75;;;;;;;;;;5049216;28;20053;-78
2023/01/30 04:26:01;;;;;;;0.00;0.00;;;;;;;;;;5052430;28;20063;-76
2023/01/30 04:28:27;;;;;;;0.50;0.50;;;;;;;;;;5053031;28;20071;-80
2023/01/30 04:30:52;;;;;;;0.68;0.68;;;;;;;;;;5053115;28;20020;-75
2023/01/30 04:33:34;;;;;;;1.75;0.73;;;;;;;;;;5070379;28;20036;-76
2023/01/30 04:36:02;;;;;;;0.50;0.50;;;;;;;;;;5051392;28;20025;-77
2023/01/30 04:38:28;;;;;;;0.80;0.65;;;;;;;;;;5052721;28;20283;-77
2023/01/30 04:40:54;;;;;;;0.15;0.15;;;;;;;;;;5053053;28;20894;-76
2023/01/30 04:43:20;;;;;;;0.00;0.00;;;;;;;;;;5052647;28;20036;-79
2023/01/30 04:46:15;;;;;;;0.10;0.10;;;;;;;;;;5047670;28;20356;-77
2023/01/30 04:48:41;;;;;;;1.00;0.85;;;;;;;;;;5051666;28;20063;-77
2023/01/30 04:51:07;;;;;;;0.22;0.22;;;;;;;;;;5052259;28;20060;-77
2023/01/30 04:53:32;;;;;;;0.25;0.25;;;;;;;;;;5052526;28;20070;-78
2023/01/30 04:55:58;;;;;;;0.30;0.30;;;;;;;;;;5035594;28;20033;-77
2023/01/30 04:58:23;;;;;;;0.38;0.38;;;;;;;;;;5070399;28;20490;-77
2023/01/30 05:00:49;;;;;;;0.35;0.35;;;;;;;;;;5052008;28;20052;-77
2023/01/30 05:03:15;;;;;;;0.00;0.00;;;;;;;;;;5051836;28;20028;-77
2023/01/30 05:05:40;;;;;;;0.10;0.10;;;;;;;;;;5068895;28;20029;-77
2023/01/30 05:08:07;;;;;;;0.10;0.10;;;;;;;;;;5069518;28;20356;-77
2023/01/30 05:10:32;;;;;;;0.28;0.28;;;;;;;;;;5050935;28;20029;-77
2023/01/30 05:13:02;;;;;;;0.00;0.00;;;;;;;;;;5069760;28;20051;-76
2023/01/30 05:15:28;;;;;;;0.55;0.55;;;;;;;;;;5069846;28;20044;-76
2023/01/30 05:17:53;;;;;;;0.20;0.20;;;;;;;;;;5067494;28;20044;-75
2023/01/30 05:20:18;;;;;;;0.35;0.35;;;;;;;;;;5069426;28;20060;-76
2023/01/30 05:22:44;;;;;;;0.10;0.10;;;;;;;;;;5051971;28;20032;-76
2023/01/30 05:25:09;;;;;;;0.03;0.03;;;;;;;;;;5069552;28;20484;-77
2023/01/30 05:27:34;;;;;;;0.35;0.35;;;;;;;;;;5069573;28;20113;-77
2023/01/30 05:30:00;;;;;;;0.00;0.00;;;;;;;;;;5068765;28;20472;-75
2023/01/30 05:32:29;;;;;;;0.00;0.00;;;;;;;;;;5069594;28;20031;-76
2023/01/30 05:34:54;;;;;;;0.20;0.20;;;;;;;;;;5051395;28;20028;-75
2023/01/30 05:37:21;;;;;;;0.10;0.10;;;;;;;;;;5069311;28;20547;-76
2023/01/30 05:39:46;;;;;;;0.95;0.95;;;;;;;;;;5069275;28;20495;-74
2023/01/30 05:42:11;;;;;;;0.10;0.10;;;;;;;;;;5069555;28;20032;-75
2023/01/30 05:44:37;;;;;;;0.10;0.10;;;;;;;;;;5069479;28;20052;-76
2023/01/30 05:47:02;;;;;;;0.20;0.20;;;;;;;;;;5067931;28;20021;-81
2023/01/30 05:49:28;;;;;;;0.15;0.15;;;;;;;;;;5068318;28;20046;-82
2023/01/30 05:51:53;;;;;;;0.00;0.00;;;;;;;;;;5068989;28;20040;-88
2023/01/30 05:54:18;;;;;;;0.20;0.20;;;;;;;;;;5069284;28;20047;-90
2023/01/30 05:56:47;;;;;;;0.10;0.10;;;;;;;;;;5068624;28;20017;-86
2023/01/30 05:59:14;;;;;;;2.45;2.25;;;;;;;;;;5050961;28;20052;-84
2023/01/30 06:01:39;;;;;;;0.00;0.00;;;;;;;;;;5067136;28;20032;-76
2023/01/30 06:04:05;;;;;;;5.75;5.32;;;;;;;;;;5068737;28;20025;-77
2023/01/30 06:06:30;;;;;;;0.05;0.05;;;;;;;;;;5034751;28;20386;-79
2023/01/30 06:08:56;;;;;;;2.72;2.55;;;;;;;;;;5050980;28;20037;-78
2023/01/30 06:11:22;;;;;;;0.00;0.00;;;;;;;;;;5047242;28;20040;-77
2023/01/30 06:13:47;;;;;;;0.08;0.08;;;;;;;;;;5064068;28;20032;-83
2023/01/30 06:16:14;;;;;;;0.10;0.10;;;;;;;;;;5069081;28;20024;-80
2023/01/30 06:18:39;;;;;;;0.20;0.20;;;;;;;;;;5052298;28;20052;-84
2023/01/30 06:21:05;;;;;;;0.10;0.10;;;;;;;;;;5070923;28;20063;-79
2023/01/30 06:23:30;;;;;;;0.13;0.13;;;;;;;;;;5071738;28;20466;-77
2023/01/30 06:25:55;;;;;;;0.13;0.13;;;;;;;;;;5072531;28;20021;-76
2023/01/30 06:28:21;;;;;;;0.30;0.30;;;;;;;;;;5071935;28;20067;-76
2023/01/30 06:30:47;;;;;;;0.05;0.05;;;;;;;;;;5054603;28;20073;-76
2023/01/30 06:33:13;;;;;;;0.40;0.40;;;;;;;;;;5072424;28;20115;-78
2023/01/30 06:35:39;;;;;;;0.00;0.00;;;;;;;;;;5053994;28;20542;-79
2023/01/30 06:38:04;;;;;;;0.10;0.10;;;;;;;;;;5072657;28;20036;-82
2023/01/30 06:40:30;;;;;;;0.30;0.30;;;;;;;;;;5072791;28;20021;-80
2023/01/30 06:42:55;;;;;;;0.28;0.28;;;;;;;;;;5072339;28;20020;-79
2023/01/30 06:45:20;;;;;;;0.00;0.00;;;;;;;;;;5072364;28;20033;-77
2023/01/30 06:47:46;;;;;;;0.00;0.00;;;;;;;;;;5072109;28;20033;-80
2023/01/30 06:50:12;;;;;;;0.10;0.10;;;;;;;;;;5070467;28;20490;-82
2023/01/30 06:52:41;;;;;;;0.10;0.10;;;;;;;;;;5071730;28;20024;-80
2023/01/30 06:55:07;;;;;;;0.00;0.00;;;;;;;;;;5053747;28;20044;-75
2023/01/30 06:57:33;;;;;;;0.00;0.00;;;;;;;;;;5067661;28;20267;-78
2023/01/30 06:59:58;;;;;;;0.80;0.63;;;;;;;;;;5064175;28;20762;-77
2023/01/30 07:02:24;;;;;;;0.20;0.20;;;;;;;;;;5071857;28;20044;-76
2023/01/30 07:04:49;;;;;;;0.28;0.28;;;;;;;;;;5072432;28;20043;-76
2023/01/30 07:07:14;;;;;;;1.23;1.00;;;;;;;;;;5071913;28;20029;-76
2023/01/30 07:09:40;;;;;;;1.88;1.77;;;;;;;;;;5071956;28;20127;-76
2023/01/30 07:12:05;;;;;;;0.15;0.15;;;;;;;;;;5054163;28;20436;-76
2023/01/30 07:14:31;;;;;;;0.43;0.38;;;;;;;;;;5071901;28;20024;-76
2023/01/30 07:16:56;;;;;;;0.10;0.10;;;;;;;;;;5053823;28;20036;-82
2023/01/30 07:19:21;;;;;;;0.10;0.10;;;;;;;;;;5071987;28;20039;-80
2023/01/30 07:21:47;;;;;;;0.10;0.10;;;;;;;;;;5071791;28;20016;-76
2023/01/30 07:24:12;;;;;;;5.47;3.47;;;;;;;;;;5071314;28;20048;-88
2023/01/30 07:26:38;;;;;;;3.20;1.77;;;;;;;;;;5071852;28;20032;-85
2023/01/30 07:29:03;;;;;;;0.65;0.52;;;;;;;;;;5052544;28;20048;-90
2023/01/30 07:31:28;;;;;;;2.20;2.00;;;;;;;;;;5070940;28;20498;-87
2023/01/30 07:33:54;;;;;;;1.98;1.45;;;;;;;;;;5071982;28;20396;-85
2023/01/30 07:36:19;;;;;;;0.20;0.20;;;;;;;;;;5071069;28;20036;-82
2023/01/30 07:38:46;;;;;;;1.13;0.77;;;;;;;;;;5053823;28;20372;-83
2023/01/30 07:41:12;;;;;;;0.85;0.85;;;;;;;;;;5071463;28;20032;-80
2023/01/30 07:43:37;;;;;;;0.10;0.10;;;;;;;;;;5070650;28;20024;-80
2023/01/30 07:46:03;;;;;;;16.10;2.00;;;;;;;;;;5061416;28;20036;-78
2023/01/30 07:48:28;;;;;;;2.92;1.75;;;;;;;;;;5046355;28;20036;-78
2023/01/30 07:50:55;;;;;;;1.38;1.27;;;;;;;;;;5061936;28;20131;-78
2023/01/30 07:53:20;;;;;;;0.50;0.50;;;;;;;;;;5051019;28;20559;-79
2023/01/30 07:55:46;;;;;;;0.10;0.10;;;;;;;;;;5059002;28;20111;-77
2023/01/30 07:58:16;;;;;;;0.10;0.10;;;;;;;;;;5070611;28;20097;-79
2023/01/30 08:00:42;;;;;;;0.30;0.30;;;;;;;;;;5067243;28;20032;-70
2023/01/30 08:03:12;;;;;;;0.63;0.63;;;;;;;;;;5042485;28;20052;-70
2023/01/30 08:05:37;;;;;;;7.07;2.95;;;;;;;;;;5033068;28;20028;-71
2023/01/30 08:08:02;;;;;;;2.38;2.17;;;;;;;;;;5050616;28;20044;-71
2023/01/30 08:10:28;;;;;;;0.40;0.35;;;;;;;;;;5041571;28;20111;-69
2023/01/30 08:12:53;;;;;;;0.10;0.10;;;;;;;;;;5068374;28;20029;-72
2023/01/30 08:15:18;;;;;;;0.10;0.10;;;;;;;;;;5070865;28;20029;-71
2023/01/30 08:17:51;;;;;;;0.10;0.10;;;;;;;;;;5058867;28;20028;-72
2023/01/30 08:20:17;;;;;;;0.10;0.10;;;;;;;;;;5046425;28;20182;-70
2023/01/30 08:22:42;;;;;;;0.25;0.25;;;;;;;;;;5053347;28;20103;-70
2023/01/30 08:25:07;;;;;;;1.80;1.23;;;;;;;;;;5070609;28;20052;-71
2023/01/30 08:27:33;;;;;;;0.40;0.40;;;;;;;;;;5068861;28;20028;-71
2023/01/30 08:29:58;;;;;;;0.10;0.10;;;;;;;;;;5061874;28;20021;-71
2023/01/30 08:32:23;;;;;;;3.28;3.05;;;;;;;;;;5058935;28;20132;-69
2023/01/30 08:34:49;;;;;;;5.32;1.42;;;;;;;;;;5057271;28;20040;-69
2023/01/30 08:37:14;;;;;;;8.90;8.05;;;;;;;;;;5057708;28;20029;-69
2023/01/30 08:39:40;;;;;;;0.10;0.10;;;;;;;;;;5061565;28;20037;-70
2023/01/30 08:42:05;;;;;;;0.10;0.10;;;;;;;;;;5058380;28;20388;-69
2023/01/30 08:44:30;;;;;;;0.10;0.10;;;;;;;;;;5050242;28;20035;-71
2023/01/30 08:46:56;;;;;;;1.67;1.55;;;;;;;;;;5050190;28;20476;-69
2023/01/30 08:49:21;;;;;;;0.15;0.15;;;;;;;;;;5026811;28;20496;-72
2023/01/30 08:51:47;;;;;;;1.05;0.95;;;;;;;;;;5068322;28;20426;-72
2023/01/30 08:54:12;;;;;;;0.43;0.43;;;;;;;;;;5069360;28;20032;-72
2023/01/30 08:56:37;;;;;;;0.10;0.10;;;;;;;;;;5068678;28;20020;-70
2023/01/30 08:59:03;;;;;;;6.57;2.83;;;;;;;;;;5069960;28;20028;-73
2023/01/30 09:01:28;;;;;;;2.58;2.22;;;;;;;;;;5059797;28;20025;-71
2023/01/30 09:03:53;;;;;;;6.70;4.43;;;;;;;;;;5063930;28;20520;-70
2023/01/30 09:06:19;;;;;;;0.30;0.30;;;;;;;;;;5068574;28;20086;-71
2023/01/30 09:08:44;;;;;;;1.00;0.90;;;;;;;;;;5068802;28;20116;-72
2023/01/30 09:11:10;;;;;;;0.30;0.30;;;;;;;;;;5065423;28;20032;-72
2023/01/30 09:13:37;;;;;;;66.22;3.70;;;;;;;;;;5066741;28;20033;-71
2023/01/30 09:16:04;;;;;;;0.82;0.80;;;;;;;;;;5067809;28;20032;-71
2023/01/30 09:18:30;;;;;;;0.35;0.35;;;;;;;;;;5067720;28;20036;-73
2023/01/30 09:21:04;;;;;;;5.35;2.95;;;;;;;;;;5067847;28;20483;-71
2023/01/30 09:23:30;;;;;;;1.00;0.73;;;;;;;;;;5066157;28;20060;-74
2023/01/30 09:25:55;;;;;;;0.32;0.30;;;;;;;;;;5069560;28;20017;-71
2023/01/30 09:28:20;;;;;;;0.20;0.20;;;;;;;;;;5069391;28;20511;-71
2023/01/30 09:30:46;;;;;;;1.08;1.00;;;;;;;;;;5069524;28;20024;-71
2023/01/30 09:33:15;;;;;;;1.13;0.98;;;;;;;;;;5069251;28;20060;-71
2023/01/30 09:35:40;;;;;;;0.10;0.10;;;;;;;;;;5069620;28;20028;-71
2023/01/30 09:38:06;;;;;;;0.22;0.22;;;;;;;;;;5050538;28;20271;-72
2023/01/30 09:40:32;;;;;;;0.55;0.55;;;;;;;;;;5066448;28;20039;-71
2023/01/30 09:43:00;;;;;;;0.55;0.52;;;;;;;;;;5068250;28;20016;-71
2023/01/30 09:45:28;;;;;;;0.20;0.20;;;;;;;;;;5068213;28;20035;-71
2023/01/30 09:48:03;;;;;;;0.10;0.10;;;;;;;;;;5051016;28;20101;-71
2023/01/30 09:50:28;;;;;;;0.30;0.30;;;;;;;;;;5069282;28;20497;-72
2023/01/30 09:53:02;;;;;;;3.08;1.70;;;;;;;;;;5067962;28;20059;-71
2023/01/30 09:55:29;;;;;;;0.63;0.63;;;;;;;;;;5069854;28;20116;-72
2023/01/30 09:57:55;;;;;;;0.10;0.10;;;;;;;;;;5067784;28;20150;-70
2023/01/30 10:00:29;;;;;;;2.42;1.33;;;;;;;;;;5067026;28;20024;-71
2023/01/30 10:03:07;;;;;;;7.35;6.60;;;;;;;;;;5054219;28;20048;-71
2023/01/30 10:05:47;;;;;;;0.15;0.15;;;;;;;;;;5067932;28;20517;-71
2023/01/30 10:08:24;;;;;;;0.10;0.10;;;;;;;;;;5066958;28;20094;-71
2023/01/30 10:10:56;;;;;;;0.55;0.40;;;;;;;;;;5062161;28;20020;-71
2023/01/30 10:13:21;;;;;;;4.40;2.45;;;;;;;;;;5052893;28;20076;-71
2023/01/30 10:16:05;;;;;;;0.75;0.68;;;;;;;;;;5066919;28;20506;-71
2023/01/30 10:18:37;;;;;;;1.55;1.38;;;;;;;;;;5067080;28;20074;-71
2023/01/30 10:21:08;;;;;;;0.55;0.55;;;;;;;;;;5053121;28;20033;-71
2023/01/30 10:23:33;;;;;;;0.50;0.43;;;;;;;;;;5048972;28;20048;-71
2023/01/30 10:26:10;;;;;;;0.95;0.88;;;;;;;;;;5045511;28;20025;-71
2023/01/30 10:29:01;;;;;;;0.65;0.65;;;;;;;;;;5046188;28;20084;-71
2023/01/30 10:31:31;;;;;;;0.63;0.63;;;;;;;;;;5030032;28;20098;-71
2023/01/30 10:33:59;;;;;;;0.65;0.63;;;;;;;;;;5046137;28;20426;-71
2023/01/30 10:36:40;;;;;;;0.47;0.43;;;;;;;;;;5046588;28;20040;-71
2023/01/30 10:39:15;;;;;;;0.10;0.10;;;;;;;;;;5046486;28;20021;-71
2023/01/30 10:41:48;;;;;;;2.38;1.65;;;;;;;;;;5048388;28;20171;-71
2023/01/30 10:44:14;;;;;;;0.38;0.38;;;;;;;;;;5048406;28;20116;-71
2023/01/30 10:46:39;;;;;;;2.88;1.02;;;;;;;;;;5030919;28;20443;-71
2023/01/30 10:49:21;;;;;;;4.80;2.97;;;;;;;;;;5048806;28;20558;-71
2023/01/30 10:52:15;;;;;;;2.20;0.52;;;;;;;;;;5048633;28;20518;-71
2023/01/30 10:54:44;;;;;;;3.45;3.03;;;;;;;;;;5039504;28;20041;-71
2023/01/30 10:57:12;;;;;;;2.42;1.45;;;;;;;;;;5048590;28;20376;-71
2023/01/30 10:59:44;;;;;;;0.10;0.10;;;;;;;;;;5048856;28;20112;-71
2023/01/30 11:02:26;;;;;;;0.80;0.70;;;;;;;;;;5048691;28;20118;-72
2023/01/30 11:04:58;;;;;;;0.22;0.22;;;;;;;;;;5050337;28;20454;-71
2023/01/30 11:07:24;;;;;;;4.43;1.23;;;;;;;;;;5052093;28;20037;-71
2023/01/30 11:09:50;;;;;;;1.27;1.27;;;;;;;;;;5051955;28;20045;-71
2023/01/30 11:12:15;;;;;;;3.42;2.05;;;;;;;;;;5052211;28;20032;-71
2023/01/30 11:14:50;;;;;;;1.10;0.95;;;;;;;;;;5051821;28;20028;-72
2023/01/30 11:17:17;;;;;;;0.45;0.40;;;;;;;;;;5052021;28;20017;-72
2023/01/30 11:19:42;;;;;;;2.25;1.52;;;;;;;;;;5051660;28;20625;-71
2023/01/30 11:22:13;;;;;;;3.80;2.45;;;;;;;;;;5051806;28;20100;-72
2023/01/30 11:24:42;;;;;;;5.25;3.25;;;;;;;;;;5042359;28;20408;-75
2023/01/30 11:27:09;;;;;;;2.75;1.48;;;;;;;;;;5033918;28;20021;-72
2023/01/30 11:29:37;;;;;;;0.75;0.75;;;;;;;;;;5071225;28;20044;-71
2023/01/30 11:32:03;;;;;;;4.63;0.80;;;;;;;;;;5069783;28;20456;-71
2023/01/30 11:34:29;;;;;;;3.00;1.80;;;;;;;;;;5070427;28;20024;-71
2023/01/30 11:37:10;;;;;;;6.13;2.92;;;;;;;;;;5069864;28;20108;-71
2023/01/30 11:39:36;;;;;;;5.20;2.67;;;;;;;;;;5071204;28;20028;-73
2023/01/30 11:42:03;;;;;;;0.73;0.73;;;;;;;;;;5071319;28;20048;-72
2023/01/30 11:44:36;;;;;;;0.10;0.10;;;;;;;;;;5071934;28;20016;-72
2023/01/30 11:47:22;;;;;;;7.65;4.22;;;;;;;;;;5071429;28;20040;-72
2023/01/30 11:49:51;;;;;;;0.70;0.45;;;;;;;;;;5070561;28;20491;-72
2023/01/30 11:52:24;;;;;;;0.13;0.13;;;;;;;;;;5071352;28;20063;-73
2023/01/30 11:54:51;;;;;;;0.70;0.70;;;;;;;;;;5071563;28;20469;-72
2023/01/30 11:57:17;;;;;;;0.10;0.10;;;;;;;;;;5071017;28;20025;-72
2023/01/30 11:59:57;;;;;;;0.20;0.20;;;;;;;;;;5069421;28;20460;-72
2023/01/30 12:02:24;;;;;;;0.10;0.10;;;;;;;;;;5049959;28;20037;-72
2023/01/30 12:04:52;;;;;;;0.30;0.30;;;;;;;;;;5049606;28;20099;-72
2023/01/30 12:07:25;;;;;;;1.02;1.02;;;;;;;;;;5064833;28;20028;-73
2023/01/30 12:09:52;;;;;;;2.65;1.55;;;;;;;;;;5070453;28;20519;-72
2023/01/30 12:12:27;;;;;;;0.60;0.40;;;;;;;;;;5066086;28;20123;-72
2023/01/30 12:14:56;;;;;;;0.20;0.20;;;;;;;;;;5041034;28;20029;-73
2023/01/30 12:17:25;;;;;;;0.80;0.65;;;;;;;;;;5068138;28;20038;-72
2023/01/30 12:20:09;;;;;;;1.23;1.00;;;;;;;;;;5058318;28;20108;-73
2023/01/30 12:22:41;;;;;;;0.35;0.35;;;;;;;;;;5063328;28;20044;-73
2023/01/30 12:25:07;;;;;;;2.75;2.38;;;;;;;;;;5068832;28;20102;-73
2023/01/30 12:27:41;;;;;;;1.63;1.45;;;;;;;;;;5060304;28;20032;-72
2023/01/30 12:30:20;;;;;;;0.25;0.25;;;;;;;;;;5055049;28;20111;-72
2023/01/30 12:32:46;;;;;;;;;;;;;;;;;;5058368;28;20047;-73
2023/01/30 12:35:16;;;;;;;5.60;2.30;;;;;;;;;;5059425;28;20007;-72
2023/01/30 12:37:46;;;;;;;3.40;3.00;;;;;;;;;;5047506;28;20278;-72
2023/01/30 12:40:24;;;;;;;2.28;0.52;;;;;;;;;;5056728;28;20032;-72
2023/01/30 12:42:59;;;;;;;2.22;2.05;;;;;;;;;;5056823;28;20025;-73
2023/01/30 12:45:26;;;;;;;2.15;1.85;;;;;;;;;;5022244;28;20357;-72
2023/01/30 12:48:01;;;;;;;0.32;0.32;;;;;;;;;;5057054;28;20040;-72
2023/01/30 12:50:33;;;;;;;0.17;0.17;;;;;;;;;;5058619;28;20327;-73
2023/01/30 12:53:00;;;;;;;0.10;0.10;;;;;;;;;;5067082;28;20501;-72
2023/01/30 12:55:25;;;;;;;1.83;1.02;;;;;;;;;;5063859;28;20029;-72
2023/01/30 12:58:13;;;;;;;1.38;1.10;;;;;;;;;;5058648;28;20028;-73
2023/01/30 13:00:41;;;;;;;6.47;2.72;;;;;;;;;;5044792;28;20033;-72
2023/01/30 13:03:07;;;;;;;3.25;2.35;;;;;;;;;;5042937;28;20032;-72
2023/01/30 13:05:59;;;;;;;2.42;1.67;;;;;;;;;;5059798;28;20116;-74
2023/01/30 13:08:32;;;;;;;1.23;0.90;;;;;;;;;;5047185;28;20075;-74
2023/01/30 13:11:00;;;;;;;2.92;1.55;;;;;;;;;;5050078;28;20025;-73
2023/01/30 13:13:34;;;;;;;1.52;1.08;;;;;;;;;;5050893;28;20029;-72
2023/01/30 13:16:29;;;;;;;0.32;0.32;;;;;;;;;;5060558;28;20096;-71
2023/01/30 13:19:27;;;;;;;0.40;0.40;;;;;;;;;;5049456;28;20072;-73
2023/01/30 13:21:59;;;;;;;2.20;1.17;;;;;;;;;;5014821;28;20531;-72
2023/01/30 13:24:25;;;;;;;5.13;3.45;;;;;;;;;;5049395;28;20048;-72
2023/01/30 13:26:51;;;;;;;0.30;0.30;;;;;;;;;;5067719;28;20063;-72
2023/01/30 13:29:22;;;;;;;0.10;0.10;;;;;;;;;;5066439;28;20043;-72
2023/01/30 13:31:53;;;;;;;0.10;0.10;;;;;;;;;;5067228;28;20024;-72
2023/01/30 13:34:30;;;;;;;0.17;0.17;;;;;;;;;;5062673;28;20149;-73
2023/01/30 13:36:59;;;;;;;3.75;3.17;;;;;;;;;;5067203;28;20093;-73
2023/01/30 13:39:46;;;;;;;3.25;1.08;;;;;;;;;;5067524;28;20046;-70
2023/01/30 13:42:30;;;;;;;4.22;1.25;;;;;;;;;;5050278;28;20035;-70
2023/01/30 13:44:57;;;;;;;0.20;0.20;;;;;;;;;;5068827;28;20078;-71
2023/01/30 13:47:29;;;;;;;0.10;0.10;;;;;;;;;;5051867;28;20411;-71
2023/01/30 13:50:15;;;;;;;0.25;0.25;;;;;;;;;;5051212;28;20044;-71
2023/01/30 13:52:43;;;;;;;0.13;0.13;;;;;;;;;;5054813;28;20050;-71
2023/01/30 13:55:44;;;;;;;0.40;0.40;;;;;;;;;;5067529;28;20115;-69
2023/01/30 13:58:29;;;;;;;3.13;1.40;;;;;;;;;;4985498;28;20118;-71
2023/01/30 14:00:55;;;;;;;0.70;0.20;;;;;;;;;;5060847;28;20486;-71
2023/01/30 14:03:33;;;;;;;0.75;0.73;;;;;;;;;;5067162;28;20016;-71
2023/01/30 14:06:04;;;;;;;0.10;0.10;;;;;;;;;;5067179;28;20111;-71
2023/01/30 14:08:32;;;;;;;1.05;0.95;;;;;;;;;;5067949;28;20040;-71
2023/01/30 14:10:58;;;;;;;0.10;0.10;;;;;;;;;;5069254;28;20452;-71
2023/01/30 14:13:25;;;;;;;0.10;0.10;;;;;;;;;;5069125;28;20515;-71
2023/01/30 14:16:01;;;;;;;0.10;0.10;;;;;;;;;;5068829;28;20146;-71
2023/01/30 14:18:30;;;;;;;0.10;0.10;;;;;;;;;;5069466;28;20056;-71
2023/01/30 14:21:12;;;;;;;0.50;0.50;;;;;;;;;;5069113;28;20472;-71
2023/01/30 14:23:38;;;;;;;0.17;0.17;;;;;;;;;;5068894;28;20054;-71
2023/01/30 14:26:03;;;;;;;0.10;0.10;;;;;;;;;;5068869;28;20029;-71
2023/01/30 14:28:29;;;;;;;0.13;0.13;;;;;;;;;;5069015;28;20039;-72
2023/01/30 14:30:57;;;;;;;0.45;0.45;;;;;;;;;;5068736;28;20102;-71
2023/01/30 14:33:23;;;;;;;0.30;0.30;;;;;;;;;;5050907;28;20024;-71
2023/01/30 14:36:08;;;;;;;0.98;0.57;;;;;;;;;;5050992;28;20040;-71
2023/01/30 14:38:38;;;;;;;0.20;0.20;;;;;;;;;;5054929;28;20480;-71
2023/01/30 14:41:03;;;;;;;0.10;0.10;;;;;;;;;;5070669;28;20025;-70
2023/01/30 14:43:40;;;;;;;0.85;0.50;;;;;;;;;;5070653;28;20376;-71
2023/01/30 14:46:12;;;;;;;0.35;0.35;;;;;;;;;;5070450;28;20024;-71
2023/01/30 14:48:47;;;;;;;1.40;0.98;;;;;;;;;;5070369;28;20563;-71
2023/01/30 14:51:31;;;;;;;5.53;5.18;;;;;;;;;;5070514;28;20391;-71
2023/01/30 14:54:01;;;;;;;0.22;0.22;;;;;;;;;;5070240;28;20020;-71
2023/01/30 14:56:42;;;;;;;0.10;0.10;;;;;;;;;;5053908;28;20032;-72
2023/01/30 14:59:17;;;;;;;0.10;0.10;;;;;;;;;;5072292;28;20031;-71
2023/01/30 15:01:53;;;;;;;0.10;0.10;;;;;;;;;;5072098;28;20028;-71
2023/01/30 15:04:19;;;;;;;0.20;0.20;;;;;;;;;;5070425;28;20052;-71